sensor_id;sensor_type;location;lat;lon;timestamp;P1;durP1;ratioP1;P2;durP2;ratioP2
10365;SDS011;5229;41.820;23.490;2022-12-18T00:02:05;25.20;;;14.50;;
10365;SDS011;5229;41.820;23.490;2022-12-18T00:04:33;28.43;;;13.60;;
10365;SDS011;5229;41.820;23.490;2022-12-18T00:07:00;29.47;;;14.60;;
10365;SDS011;5229;41.820;23.490;2022-12-18T00:09:27;25.00;;;12.10;;
10365;SDS011;5229;41.820;23.490;2022-12-18T00:11:53;14.53;;;9.60;;
10365;SDS011;5229;41.820;23.490;2022-12-18T00:14:20;15.57;;;9.37;;
10365;SDS011;5229;41.820;23.490;2022-12-18T00:16:47;20.67;;;8.80;;
10365;SDS011;5229;41.820;23.490;2022-12-18T00:19:14;16.43;;;9.63;;
10365;SDS011;5229;41.820;23.490;2022-12-18T00:21:42;15.90;;;9.43;;
10365;SDS011;5229;41.820;23.490;2022-12-18T00:24:10;18.83;;;9.97;;
10365;SDS011;5229;41.820;23.490;2022-12-18T00:26:38;18.77;;;11.47;;
10365;SDS011;5229;41.820;23.490;2022-12-18T00:29:06;23.40;;;8.70;;
10365;SDS011;5229;41.820;23.490;2022-12-18T00:31:34;17.00;;;8.50;;
10365;SDS011;5229;41.820;23.490;2022-12-18T00:34:01;15.37;;;8.27;;
10365;SDS011;5229;41.820;23.490;2022-12-18T00:36:29;16.70;;;7.93;;
10365;SDS011;5229;41.820;23.490;2022-12-18T00:38:59;12.87;;;7.57;;
10365;SDS011;5229;41.820;23.490;2022-12-18T00:41:26;17.70;;;7.87;;
10365;SDS011;5229;41.820;23.490;2022-12-18T00:44:12;27.30;;;9.07;;
10365;SDS011;5229;41.820;23.490;2022-12-18T00:46:40;12.13;;;8.30;;
10365;SDS011;5229;41.820;23.490;2022-12-18T00:49:07;10.33;;;6.60;;
10365;SDS011;5229;41.820;23.490;2022-12-18T00:51:34;13.63;;;6.77;;
10365;SDS011;5229;41.820;23.490;2022-12-18T00:54:02;12.07;;;5.40;;
10365;SDS011;5229;41.820;23.490;2022-12-18T00:56:30;8.70;;;5.13;;
10365;SDS011;5229;41.820;23.490;2022-12-18T00:58:56;7.20;;;5.70;;
10365;SDS011;5229;41.820;23.490;2022-12-18T01:01:23;7.53;;;4.97;;
10365;SDS011;5229;41.820;23.490;2022-12-18T01:03:50;6.80;;;5.10;;
10365;SDS011;5229;41.820;23.490;2022-12-18T01:06:17;8.47;;;4.77;;
10365;SDS011;5229;41.820;23.490;2022-12-18T01:08:44;6.50;;;4.80;;
10365;SDS011;5229;41.820;23.490;2022-12-18T01:11:12;6.57;;;4.80;;
10365;SDS011;5229;41.820;23.490;2022-12-18T01:13:41;6.03;;;4.40;;
10365;SDS011;5229;41.820;23.490;2022-12-18T01:16:08;7.93;;;4.63;;
10365;SDS011;5229;41.820;23.490;2022-12-18T01:18:38;6.67;;;4.93;;
10365;SDS011;5229;41.820;23.490;2022-12-18T01:21:05;9.10;;;5.90;;
10365;SDS011;5229;41.820;23.490;2022-12-18T01:23:33;6.90;;;5.30;;
10365;SDS011;5229;41.820;23.490;2022-12-18T01:26:03;9.17;;;4.90;;
10365;SDS011;5229;41.820;23.490;2022-12-18T01:28:32;9.93;;;5.50;;
10365;SDS011;5229;41.820;23.490;2022-12-18T01:31:08;6.97;;;5.20;;
10365;SDS011;5229;41.820;23.490;2022-12-18T01:33:36;10.17;;;5.17;;
10365;SDS011;5229;41.820;23.490;2022-12-18T01:36:03;7.00;;;5.10;;
10365;SDS011;5229;41.820;23.490;2022-12-18T01:38:31;9.97;;;5.17;;
10365;SDS011;5229;41.820;23.490;2022-12-18T01:40:57;9.70;;;4.27;;
10365;SDS011;5229;41.820;23.490;2022-12-18T01:46:15;5.87;;;3.57;;
10365;SDS011;5229;41.820;23.490;2022-12-18T01:48:42;4.57;;;3.60;;
10365;SDS011;5229;41.820;23.490;2022-12-18T01:51:11;6.67;;;3.53;;
10365;SDS011;5229;41.820;23.490;2022-12-18T01:53:39;5.27;;;3.50;;
10365;SDS011;5229;41.820;23.490;2022-12-18T01:56:07;6.40;;;3.77;;
10365;SDS011;5229;41.820;23.490;2022-12-18T01:58:39;7.83;;;4.30;;
10365;SDS011;5229;41.820;23.490;2022-12-18T02:01:14;5.77;;;3.53;;
10365;SDS011;5229;41.820;23.490;2022-12-18T02:03:41;5.40;;;4.40;;
10365;SDS011;5229;41.820;23.490;2022-12-18T02:06:11;6.13;;;3.57;;
10365;SDS011;5229;41.820;23.490;2022-12-18T02:08:44;5.13;;;4.07;;
10365;SDS011;5229;41.820;23.490;2022-12-18T02:11:19;7.30;;;3.93;;
10365;SDS011;5229;41.820;23.490;2022-12-18T02:13:57;6.20;;;4.13;;
10365;SDS011;5229;41.820;23.490;2022-12-18T02:16:32;4.47;;;3.73;;
10365;SDS011;5229;41.820;23.490;2022-12-18T02:19:06;5.73;;;3.83;;
10365;SDS011;5229;41.820;23.490;2022-12-18T02:21:48;6.87;;;3.57;;
10365;SDS011;5229;41.820;23.490;2022-12-18T02:24:27;5.83;;;3.67;;
10365;SDS011;5229;41.820;23.490;2022-12-18T02:26:59;7.63;;;4.33;;
10365;SDS011;5229;41.820;23.490;2022-12-18T02:29:31;7.87;;;4.10;;
10365;SDS011;5229;41.820;23.490;2022-12-18T02:32:03;5.87;;;4.23;;
10365;SDS011;5229;41.820;23.490;2022-12-18T02:34:36;4.80;;;3.77;;
10365;SDS011;5229;41.820;23.490;2022-12-18T02:37:05;5.37;;;3.63;;
10365;SDS011;5229;41.820;23.490;2022-12-18T02:39:36;5.73;;;3.80;;
10365;SDS011;5229;41.820;23.490;2022-12-18T02:42:08;4.70;;;3.70;;
10365;SDS011;5229;41.820;23.490;2022-12-18T02:44:41;5.13;;;3.57;;
10365;SDS011;5229;41.820;23.490;2022-12-18T02:47:09;6.20;;;3.33;;
10365;SDS011;5229;41.820;23.490;2022-12-18T02:49:40;4.33;;;3.43;;
10365;SDS011;5229;41.820;23.490;2022-12-18T02:52:16;4.23;;;3.47;;
10365;SDS011;5229;41.820;23.490;2022-12-18T02:54:55;4.90;;;3.73;;
10365;SDS011;5229;41.820;23.490;2022-12-18T02:57:35;5.90;;;3.87;;
10365;SDS011;5229;41.820;23.490;2022-12-18T03:00:08;4.37;;;3.17;;
10365;SDS011;5229;41.820;23.490;2022-12-18T03:02:39;4.23;;;3.20;;
10365;SDS011;5229;41.820;23.490;2022-12-18T03:05:12;5.13;;;3.50;;
10365;SDS011;5229;41.820;23.490;2022-12-18T03:07:42;5.03;;;3.00;;
10365;SDS011;5229;41.820;23.490;2022-12-18T03:10:16;3.37;;;2.87;;
10365;SDS011;5229;41.820;23.490;2022-12-18T03:12:52;3.83;;;2.80;;
10365;SDS011;5229;41.820;23.490;2022-12-18T03:15:25;4.73;;;2.93;;
10365;SDS011;5229;41.820;23.490;2022-12-18T03:17:56;4.63;;;3.00;;
10365;SDS011;5229;41.820;23.490;2022-12-18T03:20:28;3.33;;;2.67;;
10365;SDS011;5229;41.820;23.490;2022-12-18T03:22:57;3.57;;;2.30;;
10365;SDS011;5229;41.820;23.490;2022-12-18T03:25:29;6.83;;;2.60;;
10365;SDS011;5229;41.820;23.490;2022-12-18T03:27:59;2.37;;;2.17;;
10365;SDS011;5229;41.820;23.490;2022-12-18T03:30:29;7.40;;;2.53;;
10365;SDS011;5229;41.820;23.490;2022-12-18T03:33:01;2.00;;;1.90;;
10365;SDS011;5229;41.820;23.490;2022-12-18T03:35:34;2.57;;;2.37;;
10365;SDS011;5229;41.820;23.490;2022-12-18T03:38:05;4.83;;;3.03;;
10365;SDS011;5229;41.820;23.490;2022-12-18T03:40:34;4.37;;;2.93;;
10365;SDS011;5229;41.820;23.490;2022-12-18T03:43:08;6.03;;;2.97;;
10365;SDS011;5229;41.820;23.490;2022-12-18T03:45:42;2.80;;;2.33;;
10365;SDS011;5229;41.820;23.490;2022-12-18T03:48:19;3.93;;;2.73;;
10365;SDS011;5229;41.820;23.490;2022-12-18T03:50:56;3.20;;;2.90;;
10365;SDS011;5229;41.820;23.490;2022-12-18T03:53:28;3.13;;;2.70;;
10365;SDS011;5229;41.820;23.490;2022-12-18T03:56:03;3.00;;;2.70;;
10365;SDS011;5229;41.820;23.490;2022-12-18T03:58:32;4.50;;;2.90;;
10365;SDS011;5229;41.820;23.490;2022-12-18T04:01:03;6.43;;;3.10;;
10365;SDS011;5229;41.820;23.490;2022-12-18T04:03:34;5.70;;;2.80;;
10365;SDS011;5229;41.820;23.490;2022-12-18T04:06:02;3.10;;;2.60;;
10365;SDS011;5229;41.820;23.490;2022-12-18T04:08:31;5.17;;;2.80;;
10365;SDS011;5229;41.820;23.490;2022-12-18T04:11:00;4.93;;;3.20;;
10365;SDS011;5229;41.820;23.490;2022-12-18T04:13:28;5.00;;;2.70;;
10365;SDS011;5229;41.820;23.490;2022-12-18T04:15:59;3.77;;;2.60;;
10365;SDS011;5229;41.820;23.490;2022-12-18T04:18:26;4.80;;;2.83;;
10365;SDS011;5229;41.820;23.490;2022-12-18T04:20:53;4.03;;;2.40;;
10365;SDS011;5229;41.820;23.490;2022-12-18T04:23:20;3.37;;;2.30;;
10365;SDS011;5229;41.820;23.490;2022-12-18T04:25:47;5.80;;;3.27;;
10365;SDS011;5229;41.820;23.490;2022-12-18T04:28:13;3.70;;;2.20;;
10365;SDS011;5229;41.820;23.490;2022-12-18T04:30:40;4.77;;;2.93;;
10365;SDS011;5229;41.820;23.490;2022-12-18T04:33:09;3.13;;;2.50;;
10365;SDS011;5229;41.820;23.490;2022-12-18T04:35:36;4.60;;;2.80;;
10365;SDS011;5229;41.820;23.490;2022-12-18T04:38:03;3.70;;;2.90;;
10365;SDS011;5229;41.820;23.490;2022-12-18T04:40:31;5.90;;;3.33;;
10365;SDS011;5229;41.820;23.490;2022-12-18T04:42:58;2.80;;;2.40;;
10365;SDS011;5229;41.820;23.490;2022-12-18T04:45:25;4.07;;;2.57;;
10365;SDS011;5229;41.820;23.490;2022-12-18T04:47:51;12.73;;;7.03;;
10365;SDS011;5229;41.820;23.490;2022-12-18T04:50:19;7.67;;;4.43;;
10365;SDS011;5229;41.820;23.490;2022-12-18T04:52:46;5.80;;;3.87;;
10365;SDS011;5229;41.820;23.490;2022-12-18T04:55:13;7.50;;;3.77;;
10365;SDS011;5229;41.820;23.490;2022-12-18T04:57:40;3.77;;;2.73;;
10365;SDS011;5229;41.820;23.490;2022-12-18T05:00:07;6.60;;;2.70;;
10365;SDS011;5229;41.820;23.490;2022-12-18T05:02:34;6.10;;;3.00;;
10365;SDS011;5229;41.820;23.490;2022-12-18T05:05:01;4.40;;;2.50;;
10365;SDS011;5229;41.820;23.490;2022-12-18T05:07:30;5.57;;;3.10;;
10365;SDS011;5229;41.820;23.490;2022-12-18T05:09:56;3.87;;;3.00;;
10365;SDS011;5229;41.820;23.490;2022-12-18T05:12:23;8.30;;;3.47;;
10365;SDS011;5229;41.820;23.490;2022-12-18T05:14:50;9.23;;;3.57;;
10365;SDS011;5229;41.820;23.490;2022-12-18T05:17:17;6.17;;;3.60;;
10365;SDS011;5229;41.820;23.490;2022-12-18T05:19:44;5.53;;;3.53;;
10365;SDS011;5229;41.820;23.490;2022-12-18T05:22:11;5.63;;;3.80;;
10365;SDS011;5229;41.820;23.490;2022-12-18T05:24:39;7.33;;;3.73;;
10365;SDS011;5229;41.820;23.490;2022-12-18T05:27:06;5.87;;;4.20;;
10365;SDS011;5229;41.820;23.490;2022-12-18T05:29:33;7.37;;;4.30;;
10365;SDS011;5229;41.820;23.490;2022-12-18T05:31:59;9.47;;;4.07;;
10365;SDS011;5229;41.820;23.490;2022-12-18T05:34:26;7.47;;;4.00;;
10365;SDS011;5229;41.820;23.490;2022-12-18T05:36:53;7.97;;;3.60;;
10365;SDS011;5229;41.820;23.490;2022-12-18T05:39:20;7.80;;;3.57;;
10365;SDS011;5229;41.820;23.490;2022-12-18T05:41:48;7.37;;;4.00;;
10365;SDS011;5229;41.820;23.490;2022-12-18T05:44:15;6.57;;;3.77;;
10365;SDS011;5229;41.820;23.490;2022-12-18T05:46:41;9.10;;;3.87;;
10365;SDS011;5229;41.820;23.490;2022-12-18T05:49:08;4.73;;;3.33;;
10365;SDS011;5229;41.820;23.490;2022-12-18T05:51:35;9.47;;;3.90;;
10365;SDS011;5229;41.820;23.490;2022-12-18T05:54:02;5.97;;;3.67;;
10365;SDS011;5229;41.820;23.490;2022-12-18T05:56:29;6.50;;;3.70;;
10365;SDS011;5229;41.820;23.490;2022-12-18T05:58:57;8.53;;;4.13;;
10365;SDS011;5229;41.820;23.490;2022-12-18T06:01:25;5.97;;;3.60;;
10365;SDS011;5229;41.820;23.490;2022-12-18T06:03:52;6.33;;;3.40;;
10365;SDS011;5229;41.820;23.490;2022-12-18T06:06:20;5.60;;;3.97;;
10365;SDS011;5229;41.820;23.490;2022-12-18T06:08:48;4.73;;;3.73;;
10365;SDS011;5229;41.820;23.490;2022-12-18T06:11:16;5.23;;;3.57;;
10365;SDS011;5229;41.820;23.490;2022-12-18T06:13:44;6.63;;;3.87;;
10365;SDS011;5229;41.820;23.490;2022-12-18T06:16:13;4.63;;;3.03;;
10365;SDS011;5229;41.820;23.490;2022-12-18T06:18:39;6.70;;;3.33;;
10365;SDS011;5229;41.820;23.490;2022-12-18T06:21:06;6.43;;;3.90;;
10365;SDS011;5229;41.820;23.490;2022-12-18T06:23:33;6.87;;;3.63;;
10365;SDS011;5229;41.820;23.490;2022-12-18T06:26:03;6.03;;;3.90;;
10365;SDS011;5229;41.820;23.490;2022-12-18T06:28:31;9.20;;;4.10;;
10365;SDS011;5229;41.820;23.490;2022-12-18T06:30:58;6.77;;;3.97;;
10365;SDS011;5229;41.820;23.490;2022-12-18T06:33:27;5.43;;;3.87;;
10365;SDS011;5229;41.820;23.490;2022-12-18T06:35:54;5.10;;;3.07;;
10365;SDS011;5229;41.820;23.490;2022-12-18T06:38:25;5.27;;;3.20;;
10365;SDS011;5229;41.820;23.490;2022-12-18T06:40:51;5.57;;;3.40;;
10365;SDS011;5229;41.820;23.490;2022-12-18T06:43:18;3.47;;;3.00;;
10365;SDS011;5229;41.820;23.490;2022-12-18T06:45:45;4.70;;;3.37;;
10365;SDS011;5229;41.820;23.490;2022-12-18T06:48:17;5.97;;;2.63;;
10365;SDS011;5229;41.820;23.490;2022-12-18T06:50:45;4.43;;;3.20;;
10365;SDS011;5229;41.820;23.490;2022-12-18T06:53:12;4.07;;;2.77;;
10365;SDS011;5229;41.820;23.490;2022-12-18T06:55:39;5.37;;;3.20;;
10365;SDS011;5229;41.820;23.490;2022-12-18T06:58:07;5.10;;;3.50;;
10365;SDS011;5229;41.820;23.490;2022-12-18T07:00:34;6.17;;;2.90;;
10365;SDS011;5229;41.820;23.490;2022-12-18T07:03:01;4.30;;;2.60;;
10365;SDS011;5229;41.820;23.490;2022-12-18T07:05:28;4.17;;;2.77;;
10365;SDS011;5229;41.820;23.490;2022-12-18T07:07:57;3.23;;;2.50;;
10365;SDS011;5229;41.820;23.490;2022-12-18T07:10:24;4.83;;;2.87;;
10365;SDS011;5229;41.820;23.490;2022-12-18T07:12:51;5.40;;;3.10;;
10365;SDS011;5229;41.820;23.490;2022-12-18T07:15:18;5.67;;;3.63;;
10365;SDS011;5229;41.820;23.490;2022-12-18T07:17:45;3.73;;;3.23;;
10365;SDS011;5229;41.820;23.490;2022-12-18T07:20:11;5.50;;;3.07;;
10365;SDS011;5229;41.820;23.490;2022-12-18T07:22:38;3.33;;;3.03;;
10365;SDS011;5229;41.820;23.490;2022-12-18T07:25:07;6.50;;;3.30;;
10365;SDS011;5229;41.820;23.490;2022-12-18T07:27:34;4.27;;;3.33;;
10365;SDS011;5229;41.820;23.490;2022-12-18T07:30:01;5.23;;;3.50;;
10365;SDS011;5229;41.820;23.490;2022-12-18T07:32:27;5.23;;;3.60;;
10365;SDS011;5229;41.820;23.490;2022-12-18T07:34:56;4.50;;;3.20;;
10365;SDS011;5229;41.820;23.490;2022-12-18T07:37:23;2.83;;;2.53;;
10365;SDS011;5229;41.820;23.490;2022-12-18T07:39:49;3.83;;;3.23;;
10365;SDS011;5229;41.820;23.490;2022-12-18T07:42:18;3.80;;;3.03;;
10365;SDS011;5229;41.820;23.490;2022-12-18T07:44:56;3.70;;;3.00;;
10365;SDS011;5229;41.820;23.490;2022-12-18T07:47:24;4.53;;;3.13;;
10365;SDS011;5229;41.820;23.490;2022-12-18T07:49:51;3.27;;;2.63;;
10365;SDS011;5229;41.820;23.490;2022-12-18T07:52:17;3.93;;;2.63;;
10365;SDS011;5229;41.820;23.490;2022-12-18T07:54:44;3.53;;;3.03;;
10365;SDS011;5229;41.820;23.490;2022-12-18T07:57:13;7.00;;;3.30;;
10365;SDS011;5229;41.820;23.490;2022-12-18T07:59:42;7.63;;;3.93;;
10365;SDS011;5229;41.820;23.490;2022-12-18T08:02:09;7.43;;;4.60;;
10365;SDS011;5229;41.820;23.490;2022-12-18T08:04:35;7.87;;;4.67;;
10365;SDS011;5229;41.820;23.490;2022-12-18T08:07:02;5.40;;;4.27;;
10365;SDS011;5229;41.820;23.490;2022-12-18T08:09:29;5.57;;;3.90;;
10365;SDS011;5229;41.820;23.490;2022-12-18T08:11:56;4.87;;;3.90;;
10365;SDS011;5229;41.820;23.490;2022-12-18T08:14:22;4.30;;;3.00;;
10365;SDS011;5229;41.820;23.490;2022-12-18T08:16:51;3.83;;;3.30;;
10365;SDS011;5229;41.820;23.490;2022-12-18T08:19:17;6.00;;;4.00;;
10365;SDS011;5229;41.820;23.490;2022-12-18T08:21:44;4.93;;;3.60;;
10365;SDS011;5229;41.820;23.490;2022-12-18T08:24:11;3.97;;;3.37;;
10365;SDS011;5229;41.820;23.490;2022-12-18T08:26:38;5.03;;;3.47;;
10365;SDS011;5229;41.820;23.490;2022-12-18T08:29:05;7.00;;;4.20;;
10365;SDS011;5229;41.820;23.490;2022-12-18T08:31:32;5.43;;;3.83;;
10365;SDS011;5229;41.820;23.490;2022-12-18T08:34:00;4.93;;;3.50;;
10365;SDS011;5229;41.820;23.490;2022-12-18T08:36:27;5.20;;;3.70;;
10365;SDS011;5229;41.820;23.490;2022-12-18T08:38:54;4.80;;;3.57;;
10365;SDS011;5229;41.820;23.490;2022-12-18T08:41:21;4.63;;;3.77;;
10365;SDS011;5229;41.820;23.490;2022-12-18T08:43:48;4.60;;;3.60;;
10365;SDS011;5229;41.820;23.490;2022-12-18T08:46:34;6.63;;;3.60;;
10365;SDS011;5229;41.820;23.490;2022-12-18T08:49:04;5.20;;;3.53;;
10365;SDS011;5229;41.820;23.490;2022-12-18T08:51:31;3.77;;;3.00;;
10365;SDS011;5229;41.820;23.490;2022-12-18T08:53:58;3.87;;;3.47;;
10365;SDS011;5229;41.820;23.490;2022-12-18T08:56:25;3.83;;;3.43;;
10365;SDS011;5229;41.820;23.490;2022-12-18T08:58:52;5.20;;;3.57;;
10365;SDS011;5229;41.820;23.490;2022-12-18T09:01:19;5.07;;;3.50;;
10365;SDS011;5229;41.820;23.490;2022-12-18T09:03:46;5.50;;;3.53;;
10365;SDS011;5229;41.820;23.490;2022-12-18T09:06:15;4.93;;;3.33;;
10365;SDS011;5229;41.820;23.490;2022-12-18T09:08:43;4.63;;;3.13;;
10365;SDS011;5229;41.820;23.490;2022-12-18T09:11:11;6.83;;;3.60;;
10365;SDS011;5229;41.820;23.490;2022-12-18T09:13:40;4.00;;;3.07;;
10365;SDS011;5229;41.820;23.490;2022-12-18T09:16:06;6.10;;;3.80;;
10365;SDS011;5229;41.820;23.490;2022-12-18T09:18:33;5.00;;;3.37;;
10365;SDS011;5229;41.820;23.490;2022-12-18T09:21:06;6.27;;;3.67;;
10365;SDS011;5229;41.820;23.490;2022-12-18T09:23:35;4.80;;;3.33;;
10365;SDS011;5229;41.820;23.490;2022-12-18T09:26:02;10.10;;;3.73;;
10365;SDS011;5229;41.820;23.490;2022-12-18T09:28:29;5.30;;;3.40;;
10365;SDS011;5229;41.820;23.490;2022-12-18T09:30:56;5.30;;;3.53;;
10365;SDS011;5229;41.820;23.490;2022-12-18T09:33:22;5.50;;;3.43;;
10365;SDS011;5229;41.820;23.490;2022-12-18T09:35:49;5.97;;;3.67;;
10365;SDS011;5229;41.820;23.490;2022-12-18T09:38:16;6.60;;;3.70;;
10365;SDS011;5229;41.820;23.490;2022-12-18T09:40:46;5.50;;;3.53;;
10365;SDS011;5229;41.820;23.490;2022-12-18T09:43:17;5.93;;;3.40;;
10365;SDS011;5229;41.820;23.490;2022-12-18T09:45:46;5.00;;;3.60;;
10365;SDS011;5229;41.820;23.490;2022-12-18T09:48:18;5.33;;;3.33;;
10365;SDS011;5229;41.820;23.490;2022-12-18T09:50:49;4.70;;;3.57;;
10365;SDS011;5229;41.820;23.490;2022-12-18T09:53:19;6.07;;;3.10;;
10365;SDS011;5229;41.820;23.490;2022-12-18T09:55:52;4.57;;;3.30;;
10365;SDS011;5229;41.820;23.490;2022-12-18T09:58:24;5.83;;;3.43;;
10365;SDS011;5229;41.820;23.490;2022-12-18T10:00:56;5.37;;;3.67;;
10365;SDS011;5229;41.820;23.490;2022-12-18T10:03:23;6.20;;;3.93;;
10365;SDS011;5229;41.820;23.490;2022-12-18T10:05:53;4.87;;;3.70;;
10365;SDS011;5229;41.820;23.490;2022-12-18T10:08:34;4.73;;;3.37;;
10365;SDS011;5229;41.820;23.490;2022-12-18T10:11:16;5.73;;;3.83;;
10365;SDS011;5229;41.820;23.490;2022-12-18T10:13:54;4.97;;;3.30;;
10365;SDS011;5229;41.820;23.490;2022-12-18T10:16:27;5.60;;;3.50;;
10365;SDS011;5229;41.820;23.490;2022-12-18T10:19:07;4.17;;;3.40;;
10365;SDS011;5229;41.820;23.490;2022-12-18T10:21:45;4.90;;;3.43;;
10365;SDS011;5229;41.820;23.490;2022-12-18T10:24:20;8.33;;;4.03;;
10365;SDS011;5229;41.820;23.490;2022-12-18T10:26:56;4.93;;;3.90;;
10365;SDS011;5229;41.820;23.490;2022-12-18T10:29:33;4.53;;;3.53;;
10365;SDS011;5229;41.820;23.490;2022-12-18T10:32:00;5.30;;;4.17;;
10365;SDS011;5229;41.820;23.490;2022-12-18T10:34:27;4.80;;;3.23;;
10365;SDS011;5229;41.820;23.490;2022-12-18T10:36:54;5.87;;;3.83;;
10365;SDS011;5229;41.820;23.490;2022-12-18T10:39:22;4.67;;;3.93;;
10365;SDS011;5229;41.820;23.490;2022-12-18T10:41:51;5.43;;;4.03;;
10365;SDS011;5229;41.820;23.490;2022-12-18T10:44:20;5.70;;;3.93;;
10365;SDS011;5229;41.820;23.490;2022-12-18T10:46:48;6.43;;;3.90;;
10365;SDS011;5229;41.820;23.490;2022-12-18T10:49:27;5.83;;;3.87;;
10365;SDS011;5229;41.820;23.490;2022-12-18T10:52:06;6.17;;;4.40;;
10365;SDS011;5229;41.820;23.490;2022-12-18T10:54:45;6.97;;;4.67;;
10365;SDS011;5229;41.820;23.490;2022-12-18T10:57:14;6.00;;;4.50;;
10365;SDS011;5229;41.820;23.490;2022-12-18T10:59:51;7.73;;;4.50;;
10365;SDS011;5229;41.820;23.490;2022-12-18T11:02:26;5.10;;;4.27;;
10365;SDS011;5229;41.820;23.490;2022-12-18T11:04:55;7.47;;;6.13;;
10365;SDS011;5229;41.820;23.490;2022-12-18T11:07:21;8.93;;;5.13;;
10365;SDS011;5229;41.820;23.490;2022-12-18T11:09:59;6.13;;;4.73;;
10365;SDS011;5229;41.820;23.490;2022-12-18T11:12:28;6.10;;;4.03;;
10365;SDS011;5229;41.820;23.490;2022-12-18T11:14:56;6.43;;;4.37;;
10365;SDS011;5229;41.820;23.490;2022-12-18T11:17:28;5.73;;;3.93;;
10365;SDS011;5229;41.820;23.490;2022-12-18T11:19:56;4.37;;;3.27;;
10365;SDS011;5229;41.820;23.490;2022-12-18T11:22:24;7.57;;;3.50;;
10365;SDS011;5229;41.820;23.490;2022-12-18T11:24:54;4.03;;;2.63;;
10365;SDS011;5229;41.820;23.490;2022-12-18T11:27:24;5.43;;;2.80;;
10365;SDS011;5229;41.820;23.490;2022-12-18T11:29:51;5.80;;;3.33;;
10365;SDS011;5229;41.820;23.490;2022-12-18T11:32:31;5.03;;;3.43;;
10365;SDS011;5229;41.820;23.490;2022-12-18T11:35:07;6.83;;;3.27;;
10365;SDS011;5229;41.820;23.490;2022-12-18T11:37:40;3.00;;;2.60;;
10365;SDS011;5229;41.820;23.490;2022-12-18T11:40:11;3.10;;;2.80;;
10365;SDS011;5229;41.820;23.490;2022-12-18T11:42:44;3.33;;;2.70;;
10365;SDS011;5229;41.820;23.490;2022-12-18T11:45:24;3.83;;;2.53;;
10365;SDS011;5229;41.820;23.490;2022-12-18T11:47:56;4.20;;;3.13;;
10365;SDS011;5229;41.820;23.490;2022-12-18T11:50:28;4.30;;;2.77;;
10365;SDS011;5229;41.820;23.490;2022-12-18T11:53:00;4.00;;;3.10;;
10365;SDS011;5229;41.820;23.490;2022-12-18T11:55:30;4.50;;;2.60;;
10365;SDS011;5229;41.820;23.490;2022-12-18T11:58:03;3.00;;;2.60;;
10365;SDS011;5229;41.820;23.490;2022-12-18T12:00:40;2.33;;;2.13;;
10365;SDS011;5229;41.820;23.490;2022-12-18T12:03:19;2.73;;;2.53;;
10365;SDS011;5229;41.820;23.490;2022-12-18T12:06:07;3.33;;;2.70;;
10365;SDS011;5229;41.820;23.490;2022-12-18T12:08:47;4.13;;;2.33;;
10365;SDS011;5229;41.820;23.490;2022-12-18T12:11:23;4.00;;;2.20;;
10365;SDS011;5229;41.820;23.490;2022-12-18T12:14:03;3.77;;;2.33;;
10365;SDS011;5229;41.820;23.490;2022-12-18T12:16:44;5.40;;;2.50;;
10365;SDS011;5229;41.820;23.490;2022-12-18T12:19:22;3.00;;;2.70;;
10365;SDS011;5229;41.820;23.490;2022-12-18T12:22:03;2.40;;;2.20;;
10365;SDS011;5229;41.820;23.490;2022-12-18T12:24:48;2.77;;;2.23;;
10365;SDS011;5229;41.820;23.490;2022-12-18T12:27:25;3.27;;;2.27;;
10365;SDS011;5229;41.820;23.490;2022-12-18T12:30:01;3.43;;;2.80;;
10365;SDS011;5229;41.820;23.490;2022-12-18T12:32:36;3.37;;;2.53;;
10365;SDS011;5229;41.820;23.490;2022-12-18T12:35:20;3.23;;;2.60;;
10365;SDS011;5229;41.820;23.490;2022-12-18T12:37:59;2.60;;;2.40;;
10365;SDS011;5229;41.820;23.490;2022-12-18T12:40:34;2.97;;;2.37;;
10365;SDS011;5229;41.820;23.490;2022-12-18T12:43:07;3.17;;;2.50;;
10365;SDS011;5229;41.820;23.490;2022-12-18T12:45:47;2.93;;;2.63;;
10365;SDS011;5229;41.820;23.490;2022-12-18T12:48:20;2.80;;;2.30;;
10365;SDS011;5229;41.820;23.490;2022-12-18T12:50:59;3.20;;;2.53;;
10365;SDS011;5229;41.820;23.490;2022-12-18T12:53:30;2.87;;;2.67;;
10365;SDS011;5229;41.820;23.490;2022-12-18T12:56:00;3.03;;;2.53;;
10365;SDS011;5229;41.820;23.490;2022-12-18T12:58:30;3.83;;;2.23;;
10365;SDS011;5229;41.820;23.490;2022-12-18T13:01:10;3.67;;;2.90;;
10365;SDS011;5229;41.820;23.490;2022-12-18T13:03:46;3.67;;;2.60;;
10365;SDS011;5229;41.820;23.490;2022-12-18T13:06:27;3.90;;;3.40;;
10365;SDS011;5229;41.820;23.490;2022-12-18T13:09:00;4.97;;;3.43;;
10365;SDS011;5229;41.820;23.490;2022-12-18T13:11:32;3.63;;;3.30;;
10365;SDS011;5229;41.820;23.490;2022-12-18T13:14:20;2.80;;;2.40;;
10365;SDS011;5229;41.820;23.490;2022-12-18T13:16:49;2.77;;;2.30;;
10365;SDS011;5229;41.820;23.490;2022-12-18T13:19:21;3.10;;;2.57;;
10365;SDS011;5229;41.820;23.490;2022-12-18T13:21:54;3.20;;;2.53;;
10365;SDS011;5229;41.820;23.490;2022-12-18T13:24:25;2.90;;;2.00;;
10365;SDS011;5229;41.820;23.490;2022-12-18T13:26:54;2.67;;;2.43;;
10365;SDS011;5229;41.820;23.490;2022-12-18T13:32:19;2.30;;;2.10;;
10365;SDS011;5229;41.820;23.490;2022-12-18T13:34:48;3.30;;;2.20;;
10365;SDS011;5229;41.820;23.490;2022-12-18T13:37:41;3.17;;;2.57;;
10365;SDS011;5229;41.820;23.490;2022-12-18T13:43:26;2.97;;;2.47;;
10365;SDS011;5229;41.820;23.490;2022-12-18T13:46:00;2.80;;;2.03;;
10365;SDS011;5229;41.820;23.490;2022-12-18T13:48:33;3.43;;;2.67;;
10365;SDS011;5229;41.820;23.490;2022-12-18T13:51:03;3.20;;;2.50;;
10365;SDS011;5229;41.820;23.490;2022-12-18T13:53:37;3.57;;;2.83;;
10365;SDS011;5229;41.820;23.490;2022-12-18T13:56:08;3.97;;;2.93;;
10365;SDS011;5229;41.820;23.490;2022-12-18T13:58:35;3.33;;;3.03;;
10365;SDS011;5229;41.820;23.490;2022-12-18T14:01:02;4.10;;;2.90;;
10365;SDS011;5229;41.820;23.490;2022-12-18T14:03:29;3.33;;;2.70;;
10365;SDS011;5229;41.820;23.490;2022-12-18T14:05:58;3.37;;;2.70;;
10365;SDS011;5229;41.820;23.490;2022-12-18T14:08:32;2.77;;;2.57;;
10365;SDS011;5229;41.820;23.490;2022-12-18T14:11:04;3.90;;;2.70;;
10365;SDS011;5229;41.820;23.490;2022-12-18T14:13:35;3.67;;;3.17;;
10365;SDS011;5229;41.820;23.490;2022-12-18T14:16:04;3.47;;;2.63;;
10365;SDS011;5229;41.820;23.490;2022-12-18T14:18:36;4.30;;;2.80;;
10365;SDS011;5229;41.820;23.490;2022-12-18T14:21:14;3.03;;;2.73;;
10365;SDS011;5229;41.820;23.490;2022-12-18T14:23:44;3.73;;;3.27;;
10365;SDS011;5229;41.820;23.490;2022-12-18T14:26:22;4.37;;;3.43;;
10365;SDS011;5229;41.820;23.490;2022-12-18T14:28:53;4.27;;;3.50;;
10365;SDS011;5229;41.820;23.490;2022-12-18T14:31:21;3.63;;;3.03;;
10365;SDS011;5229;41.820;23.490;2022-12-18T14:33:49;4.20;;;3.67;;
10365;SDS011;5229;41.820;23.490;2022-12-18T14:36:17;3.80;;;3.00;;
10365;SDS011;5229;41.820;23.490;2022-12-18T14:38:48;3.20;;;2.73;;
10365;SDS011;5229;41.820;23.490;2022-12-18T14:41:16;2.70;;;2.43;;
10365;SDS011;5229;41.820;23.490;2022-12-18T14:43:46;3.37;;;2.77;;
10365;SDS011;5229;41.820;23.490;2022-12-18T14:46:30;2.60;;;2.33;;
10365;SDS011;5229;41.820;23.490;2022-12-18T14:49:01;4.73;;;2.80;;
10365;SDS011;5229;41.820;23.490;2022-12-18T14:51:30;2.77;;;2.50;;
10365;SDS011;5229;41.820;23.490;2022-12-18T14:53:59;4.07;;;2.93;;
10365;SDS011;5229;41.820;23.490;2022-12-18T14:56:28;4.13;;;3.00;;
10365;SDS011;5229;41.820;23.490;2022-12-18T14:59:00;2.83;;;2.57;;
10365;SDS011;5229;41.820;23.490;2022-12-18T15:01:29;3.20;;;2.90;;
10365;SDS011;5229;41.820;23.490;2022-12-18T15:03:59;3.93;;;3.00;;
10365;SDS011;5229;41.820;23.490;2022-12-18T15:06:31;3.10;;;2.47;;
10365;SDS011;5229;41.820;23.490;2022-12-18T15:09:02;3.80;;;3.30;;
10365;SDS011;5229;41.820;23.490;2022-12-18T15:11:35;4.10;;;3.10;;
10365;SDS011;5229;41.820;23.490;2022-12-18T15:14:29;3.90;;;3.13;;